createdAt,value
2023-05-25T00:00:15.626Z,14.64
2023-05-25T00:02:47.450Z,14.66
2023-05-25T00:05:24.409Z,14.67
2023-05-25T00:08:15.445Z,14.69
2023-05-25T00:13:10.735Z,14.74
2023-05-25T00:15:38.879Z,14.76
2023-05-25T00:18:06.991Z,14.79
2023-05-25T00:20:35.732Z,14.81
2023-05-25T00:23:05.285Z,14.80
2023-05-25T00:25:33.303Z,14.78
2023-05-25T00:28:03.228Z,14.78
2023-05-25T00:30:31.543Z,14.78
2023-05-25T00:33:01.563Z,14.78
2023-05-25T00:35:29.875Z,14.80
2023-05-25T00:37:57.245Z,14.81
2023-05-25T00:40:25.429Z,14.80
2023-05-25T00:42:53.763Z,14.82
2023-05-25T00:45:21.732Z,14.86
2023-05-25T00:47:52.378Z,14.88
2023-05-25T00:50:25.909Z,14.91
2023-05-25T00:52:54.493Z,14.95
2023-05-25T00:57:52.013Z,15.01
2023-05-25T01:00:20.880Z,15.04
2023-05-25T01:02:52.844Z,15.03
2023-05-25T01:05:27.545Z,15.04
2023-05-25T01:07:59.535Z,15.03
2023-05-25T01:10:33.628Z,15.02
2023-05-25T01:13:03.197Z,15.02
2023-05-25T01:15:32.261Z,15.01
2023-05-25T01:18:01.446Z,14.98
2023-05-25T01:20:30.400Z,14.96
2023-05-25T01:23:12.741Z,14.93
2023-05-25T01:25:46.246Z,14.89
2023-05-25T01:28:29.058Z,14.83
2023-05-25T01:31:00.113Z,14.81
2023-05-25T01:39:00.412Z,14.78
2023-05-25T01:41:29.790Z,14.78
2023-05-25T01:44:00.510Z,14.78
2023-05-25T01:46:40.248Z,14.79
2023-05-25T01:49:36.871Z,14.79
2023-05-25T01:52:26.648Z,14.81
2023-05-25T01:57:22.260Z,14.84
2023-05-25T01:59:52.911Z,14.87
2023-05-25T02:02:34.382Z,14.87
2023-05-25T02:08:18.266Z,14.90
2023-05-25T02:10:55.234Z,14.88
2023-05-25T02:13:24.485Z,14.90
2023-05-25T02:15:59.820Z,14.90
2023-05-25T02:20:56.752Z,14.92
2023-05-25T02:23:29.037Z,14.93
2023-05-25T02:25:58.526Z,14.93
2023-05-25T02:28:27.600Z,14.94
2023-05-25T02:31:00.514Z,14.96
2023-05-25T02:33:39.327Z,14.97
2023-05-25T02:42:12.747Z,14.97
2023-05-25T02:44:48.580Z,14.91
2023-05-25T02:47:36.616Z,14.88
2023-05-25T02:50:06.048Z,14.88
2023-05-25T02:55:52.419Z,14.89
2023-05-25T02:58:24.091Z,14.89
2023-05-25T03:00:58.891Z,14.89
2023-05-25T03:03:32.556Z,14.89
2023-05-25T03:06:02.834Z,14.89
2023-05-25T03:08:31.384Z,14.87
2023-05-25T03:17:07.336Z,14.91
2023-05-25T03:22:34.899Z,14.96
2023-05-25T03:25:22.318Z,14.99
2023-05-25T03:30:57.800Z,15.01
2023-05-25T03:36:33.452Z,15.07
2023-05-25T03:41:28.253Z,15.13
2023-05-25T03:43:56.667Z,15.16
2023-05-25T03:46:28.452Z,15.17
2023-05-25T03:51:24.341Z,15.15
2023-05-25T03:53:52.443Z,15.12
2023-05-25T03:56:21.045Z,15.10
2023-05-25T03:58:49.333Z,15.07
2023-05-25T04:01:20.520Z,15.07
2023-05-25T04:03:54.716Z,15.11
2023-05-25T04:06:25.092Z,15.12
2023-05-25T04:08:55.054Z,15.14
2023-05-25T04:11:24.838Z,15.20
2023-05-25T04:13:54.987Z,15.26
2023-05-25T04:16:28.646Z,15.26
2023-05-25T04:19:01.912Z,15.26
2023-05-25T04:21:30.833Z,15.30
2023-05-25T04:29:19.197Z,15.43
2023-05-25T04:32:05.830Z,15.50
2023-05-25T04:34:47.800Z,15.58
2023-05-25T04:37:18.581Z,15.64
2023-05-25T04:39:46.637Z,15.79
2023-05-25T04:42:14.735Z,15.94
2023-05-25T04:44:44.189Z,16.00
2023-05-25T04:47:12.230Z,16.04
2023-05-25T04:49:44.032Z,16.01
2023-05-25T04:52:26.114Z,16.02
2023-05-25T04:54:56.325Z,16.06
2023-05-25T04:57:26.335Z,16.09
2023-05-25T04:59:55.680Z,16.11
2023-05-25T05:02:28.099Z,16.14
2023-05-25T05:04:56.458Z,16.22
2023-05-25T05:07:24.508Z,16.32
2023-05-25T05:09:54.580Z,16.40
2023-05-25T05:12:24.972Z,16.49
2023-05-25T05:14:55.897Z,16.60
2023-05-25T05:17:25.841Z,16.70
2023-05-25T05:23:11.210Z,16.91
2023-05-25T05:25:41.126Z,17.00
2023-05-25T05:29:07.450Z,17.09
2023-05-25T06:13:26.907Z,21.30
2023-05-25T06:16:02.117Z,21.38
2023-05-25T06:18:30.482Z,21.49
2023-05-25T06:20:58.401Z,21.78
2023-05-25T06:25:55.887Z,22.35
2023-05-25T06:28:23.851Z,22.65
2023-05-25T06:30:51.669Z,22.83
2023-05-25T06:33:19.625Z,23.04
2023-05-25T06:35:52.174Z,23.11
2023-05-25T06:38:20.504Z,23.19
2023-05-25T06:40:49.693Z,23.46
2023-05-25T07:29:00.065Z,23.70
2023-05-25T07:31:28.655Z,23.61
2023-05-25T07:33:57.221Z,23.45
2023-05-25T07:36:25.687Z,23.34
2023-05-25T07:38:53.962Z,23.21
2023-05-25T07:41:22.515Z,23.10
2023-05-25T07:43:51.986Z,23.10
2023-05-25T07:46:22.355Z,23.11
2023-05-25T07:48:52.761Z,23.20
2023-05-25T07:51:23.043Z,23.31
2023-05-25T07:53:52.162Z,23.48
2023-05-25T07:56:23.399Z,23.86
2023-05-25T07:58:53.596Z,24.20
2023-05-25T08:01:26.255Z,24.43
2023-05-25T08:03:58.340Z,24.60
2023-05-25T08:06:58.321Z,24.88
2023-05-25T08:09:40.789Z,25.18
2023-05-25T08:15:48.726Z,25.55
2023-05-25T08:18:31.342Z,25.75
2023-05-25T08:21:01.746Z,25.95
2023-05-25T08:23:39.673Z,26.07
2023-05-25T08:26:31.049Z,26.12
2023-05-25T08:28:51.708Z,26.33
2023-05-25T08:34:45.602Z,26.34
2023-05-25T08:37:29.460Z,26.30
2023-05-25T08:40:02.156Z,26.20
2023-05-25T08:42:44.606Z,26.00
2023-05-25T08:45:34.850Z,25.65
2023-05-25T08:48:08.051Z,25.58
2023-05-25T08:50:38.514Z,25.59
2023-05-25T08:53:11.496Z,25.57
2023-05-25T08:56:00.257Z,25.52
2023-05-25T08:58:34.603Z,25.37
2023-05-25T09:01:11.832Z,25.16
2023-05-25T09:07:10.185Z,25.19
2023-05-25T09:09:53.016Z,25.45
2023-05-25T09:15:57.413Z,25.69
2023-05-25T09:28:50.400Z,25.94
2023-05-25T09:31:24.304Z,25.99
2023-05-25T09:33:54.371Z,26.01
2023-05-25T09:36:33.116Z,26.07
2023-05-25T09:39:01.666Z,26.15
2023-05-25T09:41:30.004Z,26.30
2023-05-25T09:44:11.046Z,26.36
2023-05-25T09:46:38.869Z,26.37
2023-05-25T09:49:09.916Z,26.52
2023-05-25T09:51:38.827Z,26.58
2023-05-25T09:54:14.212Z,26.83
2023-05-25T09:56:46.039Z,27.06
2023-05-25T09:59:26.914Z,27.34
2023-05-25T10:02:08.155Z,27.58
2023-05-25T10:04:44.969Z,27.85
2023-05-25T10:07:29.725Z,27.94
2023-05-25T10:10:33.582Z,28.11
2023-05-25T10:13:11.097Z,28.35
2023-05-25T10:15:43.333Z,28.57
2023-05-25T10:18:27.076Z,28.82
2023-05-25T10:21:02.471Z,29.12
2023-05-25T10:23:43.721Z,29.46
2023-05-25T10:26:21.437Z,29.57
2023-05-25T10:28:51.999Z,29.77
2023-05-25T10:31:22.115Z,29.71
2023-05-25T10:33:54.080Z,29.69
2023-05-25T10:36:23.700Z,29.77
2023-05-25T10:38:53.117Z,29.94
2023-05-25T10:41:23.753Z,29.91
2023-05-25T10:43:53.224Z,29.59
2023-05-25T10:46:33.116Z,29.59
2023-05-25T10:49:01.994Z,29.61
2023-05-25T10:51:39.682Z,29.71
2023-05-25T10:54:08.040Z,29.62
2023-05-25T10:56:39.056Z,29.67
2023-05-25T10:59:22.862Z,29.88
2023-05-25T11:01:52.069Z,29.99
2023-05-25T11:04:22.412Z,29.96
2023-05-25T11:07:03.612Z,29.98
2023-05-25T11:09:32.247Z,29.92
2023-05-25T11:12:03.889Z,29.89
2023-05-25T11:14:44.774Z,29.92
2023-05-25T11:17:21.104Z,30.11
2023-05-25T11:19:54.788Z,30.17
2023-05-25T11:22:34.694Z,30.29
2023-05-25T11:25:24.049Z,30.45
2023-05-25T11:27:53.680Z,30.49
2023-05-25T11:30:27.018Z,30.24
2023-05-25T11:33:03.557Z,29.87
2023-05-25T11:38:40.933Z,29.47
2023-05-25T11:54:29.748Z,28.54
2023-05-25T11:57:04.291Z,28.67
2023-05-25T11:59:33.224Z,28.94
2023-05-25T12:02:53.107Z,29.22
2023-05-25T12:06:02.626Z,29.44
2023-05-25T12:08:36.099Z,29.41
2023-05-25T12:11:06.238Z,29.18
2023-05-25T12:30:31.420Z,28.79
2023-05-25T12:35:58.780Z,28.37
2023-05-25T12:41:24.862Z,27.86
2023-05-25T12:44:04.349Z,27.69
2023-05-25T12:46:40.025Z,27.65
2023-05-25T12:49:34.204Z,27.66
2023-05-25T12:52:04.187Z,27.60
2023-05-25T12:54:43.412Z,27.57
2023-05-25T13:00:17.886Z,27.38
2023-05-25T13:02:50.810Z,27.31
2023-05-25T13:05:25.208Z,27.19
2023-05-25T13:13:42.625Z,27.48
2023-05-25T13:16:13.176Z,27.55
2023-05-25T13:22:13.230Z,27.47
2023-05-25T13:24:47.536Z,27.42
2023-05-25T13:27:17.929Z,27.50
2023-05-25T13:33:21.742Z,27.47
2023-05-25T13:36:00.928Z,27.63
2023-05-25T13:38:30.984Z,27.42
2023-05-25T13:41:02.206Z,27.36
2023-05-25T13:43:39.456Z,27.35
2023-05-25T13:46:21.941Z,27.32
2023-05-25T13:48:44.226Z,27.25
2023-05-25T13:51:20.866Z,27.17
2023-05-25T13:53:49.831Z,27.14
2023-05-25T13:56:28.305Z,27.09
2023-05-25T13:59:05.004Z,27.03
2023-05-25T14:01:36.273Z,26.99
2023-05-25T14:04:31.450Z,26.94
2023-05-25T14:07:02.606Z,26.82
2023-05-25T14:09:31.455Z,26.76
2023-05-25T14:12:11.830Z,26.77
2023-05-25T14:14:40.968Z,26.81
2023-05-25T14:17:20.025Z,26.96
2023-05-25T14:19:49.297Z,27.00
2023-05-25T14:22:21.146Z,26.94
2023-05-25T14:24:52.399Z,26.88
2023-05-25T14:27:22.020Z,26.93
2023-05-25T14:29:52.010Z,26.98
2023-05-25T14:32:25.127Z,26.83
2023-05-25T14:34:56.037Z,27.00
2023-05-25T14:37:24.533Z,27.04
2023-05-25T14:39:52.879Z,26.98
2023-05-25T14:42:21.239Z,26.99
2023-05-25T14:44:50.939Z,27.07
2023-05-25T14:47:18.967Z,27.09
2023-05-25T14:49:47.989Z,27.12
2023-05-25T14:52:15.856Z,27.10
2023-05-25T14:54:44.422Z,27.10
2023-05-25T14:57:12.558Z,27.16
2023-05-25T14:59:40.745Z,27.04
2023-05-25T15:02:08.673Z,27.20
2023-05-25T15:04:38.166Z,27.23
2023-05-25T15:07:06.254Z,27.34
2023-05-25T15:09:36.126Z,27.45
2023-05-25T15:12:07.692Z,27.53
2023-05-25T15:14:37.497Z,27.50
2023-05-25T15:17:06.583Z,27.39
2023-05-25T15:19:34.858Z,27.23
2023-05-25T15:22:03.299Z,27.05
2023-05-25T15:24:31.419Z,26.93
2023-05-25T15:27:06.906Z,26.84
2023-05-25T15:29:42.274Z,26.86
2023-05-25T15:32:14.505Z,26.93
2023-05-25T15:35:14.618Z,27.04
2023-05-25T15:37:48.458Z,27.00
2023-05-25T15:40:30.430Z,26.95
2023-05-25T15:43:02.174Z,26.79
2023-05-25T15:45:30.981Z,26.65
2023-05-25T15:47:59.692Z,26.52
2023-05-25T15:50:35.205Z,26.34
2023-05-25T15:53:04.526Z,26.19
2023-05-25T15:58:56.522Z,25.83
2023-05-25T16:01:24.869Z,25.68
2023-05-25T16:03:54.999Z,25.59
2023-05-25T16:06:23.244Z,25.49
2023-05-25T16:08:51.246Z,25.40
2023-05-25T16:11:20.381Z,25.35
2023-05-25T16:52:28.197Z,23.11
2023-05-25T16:54:58.509Z,22.88
2023-05-25T17:37:12.735Z,19.86
2023-05-25T17:39:45.632Z,19.74
2023-05-25T17:42:13.459Z,19.68
2023-05-25T17:44:41.955Z,19.60
2023-05-25T17:47:11.188Z,19.54
2023-05-25T17:49:39.336Z,19.48
2023-05-25T17:52:07.264Z,19.41
2023-05-25T17:54:49.265Z,19.37
2023-05-25T17:57:18.805Z,19.30
2023-05-25T17:59:46.914Z,19.24
2023-05-25T18:02:16.013Z,19.18
2023-05-25T18:04:44.075Z,19.13
2023-05-25T18:13:41.543Z,18.92
2023-05-25T18:16:17.553Z,18.87
2023-05-25T18:18:52.856Z,18.82
2023-05-25T18:21:28.931Z,18.75
2023-05-25T18:30:28.551Z,18.62
2023-05-25T18:32:56.568Z,18.53
2023-05-25T18:35:24.732Z,18.48
2023-05-25T18:37:52.528Z,18.38
2023-05-25T18:40:22.888Z,18.30
2023-05-25T18:42:53.674Z,18.19
2023-05-25T18:45:25.793Z,18.11
2023-05-25T18:48:00.656Z,18.06
2023-05-25T18:50:30.378Z,18.02
2023-05-25T18:52:59.239Z,17.99
2023-05-25T18:55:27.321Z,17.96
2023-05-25T18:57:57.840Z,17.91
2023-05-25T19:00:26.026Z,17.87
2023-05-25T19:02:54.460Z,17.86
2023-05-25T19:05:23.982Z,17.85
2023-05-25T19:07:59.165Z,17.81
2023-05-25T19:10:24.939Z,17.78
2023-05-25T19:12:54.981Z,17.75
2023-05-25T19:15:23.334Z,17.75
2023-05-25T19:17:51.757Z,17.73
2023-05-25T19:20:24.789Z,17.73
2023-05-25T19:23:00.175Z,17.72
2023-05-25T19:25:31.782Z,17.72
2023-05-25T19:28:02.031Z,17.71
2023-05-25T19:30:35.617Z,17.69
2023-05-25T19:33:07.924Z,17.67
2023-05-25T19:35:41.564Z,17.64
2023-05-25T19:38:17.302Z,17.64
2023-05-25T19:40:45.244Z,17.64
2023-05-25T19:43:14.851Z,17.68
2023-05-25T19:45:50.456Z,17.68
2023-05-25T19:48:24.242Z,17.66
2023-05-25T19:50:54.190Z,17.64
2023-05-25T19:53:22.009Z,17.62
2023-05-25T19:55:50.137Z,17.58
2023-05-25T19:58:18.022Z,17.52
2023-05-25T20:00:48.874Z,17.48
2023-05-25T20:03:20.643Z,17.45
2023-05-25T20:05:51.854Z,17.37
2023-05-25T20:08:20.408Z,17.37
2023-05-25T20:10:50.979Z,17.31
2023-05-25T20:13:18.934Z,17.25
2023-05-25T20:15:47.963Z,17.18
2023-05-25T20:18:20.720Z,17.11
2023-05-25T20:20:49.077Z,17.04
2023-05-25T20:23:17.168Z,16.99
2023-05-25T20:25:45.387Z,16.91
2023-05-25T20:28:14.152Z,16.87
2023-05-25T20:30:42.089Z,16.83
2023-05-25T20:33:13.274Z,16.78
2023-05-25T20:35:41.644Z,16.77
2023-05-25T20:38:09.789Z,16.76
2023-05-25T20:40:37.756Z,16.75
2023-05-25T20:43:05.782Z,16.73
2023-05-25T20:45:33.950Z,16.68
2023-05-25T20:48:05.175Z,16.65
2023-05-25T20:50:33.251Z,16.58
2023-05-25T20:53:01.758Z,16.54
2023-05-25T20:55:30.874Z,16.47
2023-05-25T20:58:01.412Z,16.40
2023-05-25T21:00:31.427Z,16.33
2023-05-25T21:02:59.787Z,16.25
2023-05-25T21:05:30.259Z,16.17
2023-05-25T21:07:59.091Z,16.12
2023-05-25T21:10:27.024Z,16.07
2023-05-25T21:12:57.816Z,16.02
2023-05-25T21:15:26.411Z,15.97
2023-05-25T21:17:54.196Z,15.94
2023-05-25T21:20:22.333Z,15.90
2023-05-25T21:22:50.515Z,15.86
2023-05-25T21:25:22.836Z,15.81
2023-05-25T21:27:58.683Z,15.75
2023-05-25T21:30:27.148Z,15.69
2023-05-25T21:32:55.006Z,15.63
2023-05-25T21:35:22.924Z,15.56
2023-05-25T21:37:51.048Z,15.54
2023-05-25T21:40:19.364Z,15.48
2023-05-25T21:42:51.313Z,15.43
2023-05-25T21:45:20.266Z,15.39
2023-05-25T21:47:48.431Z,15.33
2023-05-25T21:50:17.555Z,15.17
2023-05-25T21:52:47.530Z,15.20
2023-05-25T21:55:15.600Z,15.15
2023-05-25T21:57:43.372Z,15.10
2023-05-25T22:00:12.373Z,15.06
2023-05-25T22:02:41.177Z,15.01
2023-05-25T22:05:09.268Z,14.94
2023-05-25T22:07:37.021Z,14.80
2023-05-25T22:10:05.968Z,14.82
2023-05-25T22:12:34.017Z,14.76
2023-05-25T22:15:01.957Z,14.71
2023-05-25T22:17:29.742Z,14.66
2023-05-25T22:20:07.553Z,14.60
2023-05-25T22:22:28.205Z,14.56
2023-05-25T22:24:59.480Z,14.54
2023-05-25T22:27:27.400Z,14.50
2023-05-25T22:29:55.409Z,14.47
2023-05-25T22:32:23.151Z,14.42
2023-05-25T22:34:51.023Z,14.37
2023-05-25T22:37:18.793Z,14.33
2023-05-25T22:39:46.715Z,14.29
2023-05-25T22:42:14.636Z,14.25
2023-05-25T22:44:42.418Z,14.18
2023-05-25T22:47:10.220Z,14.15
2023-05-25T22:49:41.228Z,14.12
2023-05-25T22:52:09.630Z,14.11
2023-05-25T22:54:37.242Z,14.09
2023-05-25T22:57:08.155Z,14.04
2023-05-25T22:59:37.063Z,14.02
2023-05-25T23:02:05.245Z,14.01
2023-05-25T23:04:36.046Z,13.98
2023-05-25T23:07:04.319Z,13.95
2023-05-25T23:09:32.117Z,13.91
2023-05-25T23:12:00.014Z,13.89
2023-05-25T23:14:29.928Z,13.88
2023-05-25T23:16:57.713Z,13.89
2023-05-25T23:19:27.332Z,13.88
2023-05-25T23:21:57.870Z,13.88
2023-05-25T23:24:25.797Z,13.84
2023-05-25T23:26:53.550Z,13.84
2023-05-25T23:29:21.313Z,13.83
2023-05-25T23:31:49.119Z,13.82
2023-05-25T23:34:16.857Z,13.82
2023-05-25T23:36:45.414Z,13.82
2023-05-25T23:39:13.255Z,13.83
2023-05-25T23:41:41.158Z,13.81
2023-05-25T23:44:09.074Z,13.77
2023-05-25T23:46:37.076Z,13.76
2023-05-25T23:49:04.820Z,13.76
2023-05-25T23:51:32.811Z,13.77
2023-05-25T23:54:00.775Z,13.77
2023-05-25T23:56:28.715Z,13.75
2023-05-25T23:58:56.661Z,13.73
